createdAt,value
2018-05-14T00:00:26.869Z,31.00
2018-05-14T00:02:56.297Z,30.07
2018-05-14T00:05:24.421Z,32.20
2018-05-14T00:07:52.868Z,29.53
2018-05-14T00:10:21.330Z,35.83
2018-05-14T00:12:49.756Z,32.10
2018-05-14T00:15:18.199Z,28.90
2018-05-14T00:17:46.661Z,28.90
2018-05-14T00:20:15.099Z,33.10
2018-05-14T00:22:43.553Z,31.53
2018-05-14T00:25:11.994Z,30.50
2018-05-14T00:27:41.464Z,33.20
2018-05-14T00:30:10.111Z,33.43
2018-05-14T00:32:38.557Z,32.00
2018-05-14T00:35:07.899Z,35.77
2018-05-14T00:37:36.350Z,32.87
2018-05-14T00:40:05.575Z,33.40
2018-05-14T00:42:34.045Z,39.53
2018-05-14T00:45:02.540Z,39.07
2018-05-14T00:47:30.961Z,38.80
2018-05-14T00:49:59.420Z,41.93
2018-05-14T00:52:27.873Z,45.73
2018-05-14T00:55:07.553Z,40.07
2018-05-14T00:57:36.151Z,41.27
2018-05-14T01:00:04.458Z,38.07
2018-05-14T01:02:33.820Z,37.70
2018-05-14T01:05:02.253Z,40.27
2018-05-14T01:07:31.489Z,39.23
2018-05-14T01:09:59.933Z,41.00
2018-05-14T01:12:29.180Z,42.30
2018-05-14T01:14:57.948Z,43.00
2018-05-14T01:17:26.617Z,50.13
2018-05-14T01:19:56.011Z,44.30
2018-05-14T01:22:25.388Z,48.93
2018-05-14T01:25:00.133Z,45.93
2018-05-14T01:27:28.777Z,47.00
2018-05-14T01:29:57.580Z,49.10
2018-05-14T01:32:26.008Z,52.20
2018-05-14T01:34:54.473Z,47.27
2018-05-14T01:37:23.770Z,47.27
2018-05-14T01:39:52.984Z,44.07
2018-05-14T01:42:22.264Z,35.57
2018-05-14T01:44:50.704Z,34.27
2018-05-14T01:47:19.249Z,37.90
2018-05-14T01:49:48.656Z,35.47
2018-05-14T01:52:17.934Z,40.97
2018-05-14T01:54:47.153Z,36.80
2018-05-14T01:57:16.375Z,36.70
2018-05-14T01:59:44.821Z,36.77
2018-05-14T02:02:13.268Z,34.33
2018-05-14T02:04:41.733Z,33.10
2018-05-14T02:07:10.189Z,39.47
2018-05-14T02:09:39.614Z,40.17
2018-05-14T02:12:08.192Z,44.10
2018-05-14T02:14:36.840Z,40.57
2018-05-14T02:17:05.300Z,46.40
2018-05-14T02:19:33.772Z,49.83
2018-05-14T02:22:02.383Z,46.70
2018-05-14T02:24:30.988Z,44.97
2018-05-14T02:27:00.185Z,42.00
2018-05-14T02:29:29.416Z,42.50
2018-05-14T02:31:57.941Z,47.07
2018-05-14T02:34:26.581Z,43.40
2018-05-14T02:36:55.248Z,41.17
2018-05-14T02:39:24.464Z,35.90
2018-05-14T02:41:52.930Z,38.53
2018-05-14T02:44:22.142Z,41.93
2018-05-14T02:46:50.613Z,39.67
2018-05-14T02:49:19.836Z,41.07
2018-05-14T02:51:48.495Z,41.87
2018-05-14T02:54:17.799Z,47.43
2018-05-14T02:56:47.237Z,41.40
2018-05-14T02:59:15.786Z,41.57
2018-05-14T03:01:44.992Z,38.03
2018-05-14T03:04:14.201Z,35.60
2018-05-14T03:06:42.665Z,36.97
2018-05-14T03:09:11.881Z,35.30
2018-05-14T03:11:40.537Z,33.93
2018-05-14T03:14:08.742Z,34.03
2018-05-14T03:16:37.422Z,36.20
2018-05-14T03:19:06.831Z,36.50
2018-05-14T03:21:36.801Z,32.73
2018-05-14T03:24:04.943Z,22.07
2018-05-14T03:26:33.173Z,28.10
2018-05-14T03:29:01.637Z,24.67
2018-05-14T03:31:30.086Z,29.80
2018-05-14T03:33:58.612Z,39.10
2018-05-14T03:36:27.357Z,54.57
2018-05-14T03:38:56.128Z,52.20
2018-05-14T03:41:24.326Z,49.40
2018-05-14T03:43:53.089Z,49.47
2018-05-14T03:46:21.704Z,46.77
2018-05-14T03:48:50.165Z,77.00
2018-05-14T03:51:18.832Z,55.30
2018-05-14T03:53:48.064Z,59.03
2018-05-14T03:56:16.731Z,54.17
2018-05-14T03:58:56.348Z,54.97
2018-05-14T04:01:36.198Z,50.53
2018-05-14T04:04:15.981Z,53.80
2018-05-14T04:06:44.415Z,58.60
2018-05-14T04:09:14.373Z,49.60
2018-05-14T04:11:42.890Z,51.80
2018-05-14T04:14:11.424Z,47.13
2018-05-14T04:16:40.754Z,46.37
2018-05-14T04:19:09.305Z,38.83
2018-05-14T04:21:37.757Z,47.87
2018-05-14T04:24:06.208Z,42.80
2018-05-14T04:26:36.520Z,54.93
2018-05-14T04:29:05.017Z,49.80
2018-05-14T04:31:33.448Z,45.27
2018-05-14T04:34:01.913Z,52.47
2018-05-14T04:36:30.093Z,61.77
2018-05-14T04:38:58.748Z,51.13
2018-05-14T04:41:27.296Z,44.80
2018-05-14T04:43:56.553Z,46.37
2018-05-14T04:46:24.989Z,39.60
2018-05-14T04:48:53.473Z,43.23
2018-05-14T04:51:21.913Z,43.57
2018-05-14T04:53:51.211Z,38.80
2018-05-14T04:56:19.672Z,39.33
2018-05-14T04:58:48.112Z,37.47
2018-05-14T05:01:17.460Z,33.67
2018-05-14T05:03:45.905Z,36.80
2018-05-14T05:06:14.407Z,37.70
2018-05-14T05:08:42.970Z,31.03
2018-05-14T05:11:12.193Z,29.70
2018-05-14T05:13:40.651Z,32.90
2018-05-14T05:16:10.013Z,28.27
2018-05-14T05:18:38.473Z,36.10
2018-05-14T05:21:06.920Z,37.83
2018-05-14T05:23:35.592Z,36.63
2018-05-14T05:26:04.807Z,31.53
2018-05-14T05:28:34.216Z,30.80
2018-05-14T05:31:02.329Z,31.70
2018-05-14T05:33:30.781Z,23.97
2018-05-14T05:35:59.244Z,21.73
2018-05-14T05:38:28.454Z,19.83
2018-05-14T05:40:56.921Z,19.50
2018-05-14T05:43:26.129Z,19.10
2018-05-14T05:45:54.612Z,21.37
2018-05-14T05:48:24.040Z,22.00
2018-05-14T05:50:52.492Z,21.83
2018-05-14T05:53:21.703Z,19.60
2018-05-14T05:55:50.158Z,25.63
2018-05-14T05:58:18.593Z,21.60
2018-05-14T06:00:47.124Z,22.37
2018-05-14T06:03:15.561Z,23.93
2018-05-14T06:05:43.996Z,30.93
2018-05-14T06:08:13.234Z,27.20
2018-05-14T06:10:41.873Z,22.77
2018-05-14T06:13:11.097Z,21.20
2018-05-14T06:15:39.534Z,24.53
2018-05-14T06:18:08.929Z,25.67
2018-05-14T06:20:37.372Z,23.47
2018-05-14T06:23:06.192Z,23.10
2018-05-14T06:25:34.616Z,19.30
2018-05-14T06:28:03.536Z,18.80
2018-05-14T06:30:32.037Z,19.27
2018-05-14T06:33:00.504Z,18.77
2018-05-14T06:35:29.013Z,21.47
2018-05-14T06:37:58.408Z,25.50
2018-05-14T06:40:26.874Z,19.70
2018-05-14T06:42:55.535Z,18.90
2018-05-14T06:45:24.740Z,16.63
2018-05-14T06:47:54.004Z,18.80
2018-05-14T06:50:22.663Z,19.17
2018-05-14T06:52:51.292Z,16.33
2018-05-14T06:55:19.794Z,17.50
2018-05-14T06:57:48.545Z,15.63
2018-05-14T07:00:17.016Z,16.47
2018-05-14T07:02:45.738Z,15.37
2018-05-14T07:05:14.121Z,15.80
2018-05-14T07:07:42.665Z,16.87
2018-05-14T07:10:11.877Z,18.20
2018-05-14T07:12:40.351Z,16.67
2018-05-14T07:15:08.793Z,20.23
2018-05-14T07:17:37.264Z,18.30
2018-05-14T07:20:05.712Z,14.50
2018-05-14T07:22:35.686Z,16.17
2018-05-14T07:25:04.117Z,13.73
2018-05-14T07:27:32.559Z,12.40
2018-05-14T07:30:01.012Z,11.70
2018-05-14T07:32:30.389Z,12.30
2018-05-14T07:34:59.194Z,11.80
2018-05-14T07:37:28.614Z,13.20
2018-05-14T07:39:57.085Z,13.27
2018-05-14T07:42:26.305Z,13.57
2018-05-14T07:44:54.805Z,17.57
2018-05-14T07:47:23.385Z,12.83
2018-05-14T07:49:51.840Z,12.60
2018-05-14T07:52:21.113Z,12.87
2018-05-14T07:54:49.981Z,14.77
2018-05-14T07:57:19.219Z,14.43
2018-05-14T07:59:47.814Z,15.00
2018-05-14T08:02:17.037Z,13.13
2018-05-14T08:04:45.496Z,16.27
2018-05-14T08:07:14.786Z,16.43
2018-05-14T08:09:43.240Z,17.53
2018-05-14T08:12:11.681Z,13.10
2018-05-14T08:14:40.141Z,15.20
2018-05-14T08:17:09.373Z,14.57
2018-05-14T08:19:39.736Z,14.30
2018-05-14T08:22:09.686Z,14.30
2018-05-14T08:24:38.981Z,13.67
2018-05-14T08:27:08.216Z,14.43
2018-05-14T08:29:36.661Z,13.13
2018-05-14T08:32:05.906Z,17.60
2018-05-14T08:34:34.349Z,16.10
2018-05-14T08:37:03.401Z,14.23
2018-05-14T08:39:32.101Z,15.27
2018-05-14T08:42:00.553Z,15.47
2018-05-14T08:44:29.014Z,14.03
2018-05-14T08:46:57.465Z,29.20
2018-05-14T08:49:26.181Z,15.93
2018-05-14T08:51:55.593Z,17.37
2018-05-14T08:54:24.155Z,16.47
2018-05-14T08:56:53.481Z,15.37
2018-05-14T08:59:21.927Z,15.73
2018-05-14T09:01:50.353Z,16.47
2018-05-14T09:04:18.806Z,15.00
2018-05-14T09:06:48.108Z,15.10
2018-05-14T09:09:17.417Z,13.50
2018-05-14T09:11:46.060Z,17.20
2018-05-14T09:14:14.785Z,16.20
2018-05-14T09:16:44.009Z,15.97
2018-05-14T09:19:12.474Z,15.07
2018-05-14T09:21:41.881Z,16.97
2018-05-14T09:24:10.336Z,14.87
2018-05-14T09:26:38.821Z,14.60
2018-05-14T09:29:08.053Z,16.13
2018-05-14T09:31:36.504Z,17.10
2018-05-14T09:34:05.704Z,17.67
2018-05-14T09:36:34.938Z,18.57
2018-05-14T09:39:02.801Z,17.40
2018-05-14T09:41:31.248Z,20.80
2018-05-14T09:43:59.706Z,17.07
2018-05-14T09:46:28.236Z,15.13
2018-05-14T09:48:57.664Z,18.37
2018-05-14T09:51:26.116Z,16.83
2018-05-14T09:53:55.336Z,16.27
2018-05-14T09:56:23.833Z,17.50
2018-05-14T09:58:51.969Z,17.20
2018-05-14T10:01:21.253Z,19.53
2018-05-14T10:03:49.773Z,17.40
2018-05-14T10:06:18.216Z,17.80
2018-05-14T10:08:46.642Z,19.57
2018-05-14T10:11:15.109Z,20.27
2018-05-14T10:13:44.808Z,18.40
2018-05-14T10:16:13.694Z,21.60
2018-05-14T10:18:42.409Z,21.13
2018-05-14T10:21:11.040Z,28.50
2018-05-14T10:23:39.493Z,20.37
2018-05-14T10:26:07.982Z,24.60
2018-05-14T10:28:36.442Z,27.73
2018-05-14T10:31:04.900Z,28.90
2018-05-14T10:33:33.341Z,26.10
2018-05-14T10:36:01.848Z,27.70
2018-05-14T10:38:30.332Z,26.03
2018-05-14T10:40:58.785Z,28.47
2018-05-14T10:43:27.249Z,28.70
2018-05-14T10:45:55.797Z,27.60
2018-05-14T10:48:25.256Z,29.27
2018-05-14T10:50:54.716Z,27.67
2018-05-14T10:53:24.180Z,28.80
2018-05-14T10:55:53.631Z,27.47
2018-05-14T10:58:23.096Z,29.97
2018-05-14T11:00:52.740Z,30.13
2018-05-14T11:03:22.196Z,30.10
2018-05-14T11:05:51.658Z,30.70
2018-05-14T11:08:21.304Z,27.77
2018-05-14T11:10:50.779Z,29.53
2018-05-14T11:13:20.291Z,31.10
2018-05-14T11:15:49.844Z,28.53
2018-05-14T11:18:19.281Z,28.97
2018-05-14T11:20:48.806Z,28.67
2018-05-14T11:23:18.464Z,26.70
2018-05-14T11:25:47.690Z,26.90
2018-05-14T11:28:17.162Z,27.67
2018-05-14T11:30:46.628Z,28.07
2018-05-14T11:33:16.252Z,28.67
2018-05-14T11:35:45.696Z,29.80
2018-05-14T11:38:15.148Z,30.57
2018-05-14T11:40:44.613Z,32.03
2018-05-14T11:43:14.085Z,31.20
2018-05-14T11:45:43.543Z,31.03
2018-05-14T11:48:13.029Z,31.63
2018-05-14T11:50:42.517Z,31.13
2018-05-14T11:53:12.147Z,30.20
2018-05-14T11:55:41.584Z,31.53
2018-05-14T11:58:11.072Z,30.00
2018-05-14T12:00:40.566Z,31.27
2018-05-14T12:03:10.075Z,29.40
2018-05-14T12:05:39.678Z,31.77
2018-05-14T12:08:08.793Z,30.37
2018-05-14T12:10:38.279Z,30.77
2018-05-14T12:13:06.827Z,31.20
2018-05-14T12:15:35.284Z,31.60
2018-05-14T12:18:03.788Z,30.90
2018-05-14T12:20:32.462Z,31.10
2018-05-14T12:23:00.934Z,30.20
2018-05-14T12:25:30.565Z,31.57
2018-05-14T12:28:00.016Z,31.80
2018-05-14T12:30:29.468Z,32.83
2018-05-14T12:32:58.946Z,32.37
2018-05-14T12:35:28.395Z,32.63
2018-05-14T12:37:57.872Z,31.03
2018-05-14T12:40:27.380Z,29.03
2018-05-14T12:42:56.852Z,31.60
2018-05-14T12:45:26.304Z,30.13
2018-05-14T12:47:55.759Z,29.10
2018-05-14T12:50:25.204Z,29.33
2018-05-14T12:52:54.706Z,30.13
2018-05-14T12:55:24.145Z,29.43
2018-05-14T12:57:53.813Z,35.63
2018-05-14T13:00:23.306Z,28.20
2018-05-14T13:02:52.927Z,32.13
2018-05-14T13:05:22.384Z,30.10
2018-05-14T13:07:51.837Z,29.03
2018-05-14T13:10:21.296Z,27.93
2018-05-14T13:12:50.780Z,30.60
2018-05-14T13:15:20.296Z,28.93
2018-05-14T13:17:49.780Z,31.40
2018-05-14T13:20:19.264Z,28.53
2018-05-14T13:22:48.914Z,30.97
2018-05-14T13:25:18.376Z,31.20
2018-05-14T13:27:47.906Z,31.33
2018-05-14T13:30:17.614Z,32.37
2018-05-14T13:32:47.127Z,29.97
2018-05-14T13:35:16.596Z,32.17
2018-05-14T13:37:46.146Z,33.77
2018-05-14T13:40:15.711Z,30.93
2018-05-14T13:42:45.266Z,33.47
2018-05-14T13:45:14.735Z,33.07
2018-05-14T13:47:44.199Z,32.40
2018-05-14T13:50:13.644Z,31.10
2018-05-14T13:52:43.177Z,31.23
2018-05-14T13:55:12.636Z,32.40
2018-05-14T13:57:42.118Z,31.33
2018-05-14T14:00:11.609Z,33.90
2018-05-14T14:02:41.064Z,32.87
2018-05-14T14:05:10.664Z,31.47
2018-05-14T14:07:40.315Z,36.47
2018-05-14T14:10:09.774Z,38.63
2018-05-14T14:12:39.242Z,40.20
2018-05-14T14:15:08.697Z,37.93
2018-05-14T14:17:38.382Z,35.70
2018-05-14T14:20:07.948Z,41.23
2018-05-14T14:22:37.396Z,36.40
2018-05-14T14:25:06.869Z,39.07
2018-05-14T14:27:36.336Z,39.67
2018-05-14T14:30:05.501Z,37.80
2018-05-14T14:32:35.042Z,37.17
2018-05-14T14:35:04.504Z,38.00
2018-05-14T14:37:33.989Z,36.17
2018-05-14T14:40:03.147Z,36.80
2018-05-14T14:42:32.669Z,36.00
2018-05-14T14:45:02.178Z,38.23
2018-05-14T14:47:31.719Z,38.13
2018-05-14T14:50:01.184Z,38.23
2018-05-14T14:52:30.797Z,36.77
2018-05-14T14:55:00.240Z,37.63
2018-05-14T14:57:29.732Z,38.13
2018-05-14T14:59:59.181Z,36.53
2018-05-14T15:02:28.648Z,36.63
2018-05-14T15:04:58.100Z,35.33
2018-05-14T15:07:27.616Z,36.27
2018-05-14T15:09:57.061Z,35.73
2018-05-14T15:12:26.534Z,40.80
2018-05-14T15:14:55.993Z,38.83
2018-05-14T15:17:26.314Z,38.20
2018-05-14T15:19:56.314Z,37.03
2018-05-14T15:22:26.154Z,37.67
2018-05-14T15:24:56.126Z,38.63
2018-05-14T15:27:25.644Z,35.67
2018-05-14T15:29:55.558Z,37.07
2018-05-14T15:32:25.511Z,38.93
2018-05-14T15:34:55.499Z,40.50
2018-05-14T15:37:25.764Z,40.83
2018-05-14T15:39:55.751Z,41.10
2018-05-14T15:42:25.695Z,40.57
2018-05-14T15:44:55.651Z,42.80
2018-05-14T15:47:25.557Z,46.00
2018-05-14T15:49:55.517Z,48.40
2018-05-14T15:52:25.754Z,53.30
2018-05-14T15:54:55.695Z,51.00
2018-05-14T15:57:25.630Z,55.43
2018-05-14T15:59:55.686Z,49.30
2018-05-14T16:02:25.352Z,50.20
2018-05-14T16:04:55.125Z,55.90
2018-05-14T16:07:24.965Z,53.00
2018-05-14T16:09:54.698Z,57.23
2018-05-14T16:12:24.628Z,49.40
2018-05-14T16:14:54.527Z,58.57
2018-05-14T16:17:24.151Z,56.70
2018-05-14T16:19:53.811Z,58.97
2018-05-14T16:22:23.712Z,60.17
2018-05-14T16:24:53.574Z,63.77
2018-05-14T16:27:23.474Z,69.80
2018-05-14T16:29:53.352Z,68.37
2018-05-14T16:32:23.328Z,77.67
2018-05-14T16:34:53.213Z,75.67
2018-05-14T16:37:22.968Z,78.33
2018-05-14T16:39:53.016Z,97.47
2018-05-14T16:42:22.993Z,90.73
2018-05-14T16:44:52.992Z,92.17
2018-05-14T16:47:22.839Z,82.93
2018-05-14T16:49:52.381Z,74.60
2018-05-14T16:52:21.823Z,85.50
2018-05-14T16:54:51.297Z,70.50
2018-05-14T16:57:20.750Z,62.80
2018-05-14T16:59:50.220Z,68.03
2018-05-14T17:02:19.688Z,65.20
2018-05-14T17:04:48.885Z,58.47
2018-05-14T17:07:18.146Z,57.93
2018-05-14T17:09:46.882Z,63.73
2018-05-14T17:12:16.128Z,71.60
2018-05-14T17:14:44.625Z,64.53
2018-05-14T17:17:13.128Z,60.30
2018-05-14T17:19:41.729Z,51.80
2018-05-14T17:22:11.057Z,52.53
2018-05-14T17:24:39.726Z,54.67
2018-05-14T17:27:08.193Z,54.23
2018-05-14T17:29:36.750Z,59.10
2018-05-14T17:32:05.421Z,58.20
2018-05-14T17:34:33.935Z,60.20
2018-05-14T17:37:02.545Z,54.40
2018-05-14T17:39:31.059Z,57.37
2018-05-14T17:41:59.507Z,55.37
2018-05-14T17:44:28.731Z,59.17
2018-05-14T17:46:57.374Z,57.40
2018-05-14T17:49:26.717Z,55.70
2018-05-14T17:51:55.148Z,52.77
2018-05-14T17:54:23.628Z,61.37
2018-05-14T17:56:52.121Z,55.33
2018-05-14T17:59:20.709Z,47.97
2018-05-14T18:01:50.061Z,48.93
2018-05-14T18:04:18.541Z,48.90
2018-05-14T18:06:46.992Z,55.97
2018-05-14T18:09:16.213Z,51.07
2018-05-14T18:11:44.900Z,55.27
2018-05-14T18:14:13.325Z,58.47
2018-05-14T18:16:41.799Z,63.93
2018-05-14T18:19:10.259Z,52.77
2018-05-14T18:21:38.458Z,54.30
2018-05-14T18:24:06.804Z,56.23
2018-05-14T18:26:40.738Z,60.70
2018-05-14T18:29:09.401Z,59.30
2018-05-14T18:31:43.160Z,60.13
2018-05-14T18:34:11.390Z,56.20
2018-05-14T18:36:39.957Z,60.57
2018-05-14T18:39:08.520Z,59.80
2018-05-14T18:41:37.147Z,62.53
2018-05-14T18:44:11.009Z,63.37
2018-05-14T18:46:40.276Z,73.87
2018-05-14T18:49:08.762Z,64.30
2018-05-14T18:51:37.251Z,63.27
2018-05-14T18:54:05.720Z,65.37
2018-05-14T18:56:34.160Z,65.10
2018-05-14T18:59:02.667Z,67.67
2018-05-14T19:01:31.260Z,75.33
2018-05-14T19:03:59.734Z,66.70
2018-05-14T19:06:28.218Z,66.03
2018-05-14T19:08:57.635Z,58.63
2018-05-14T19:11:31.789Z,53.77
2018-05-14T19:14:00.328Z,49.83
2018-05-14T19:16:34.222Z,58.50
2018-05-14T19:19:02.685Z,57.30
2018-05-14T19:21:31.929Z,58.03
2018-05-14T19:24:00.466Z,69.37
2018-05-14T19:26:29.829Z,67.97
2018-05-14T19:29:03.799Z,61.50
2018-05-14T19:31:32.296Z,62.60
2018-05-14T19:34:06.096Z,64.07
2018-05-14T19:36:34.592Z,63.37
2018-05-14T19:39:02.898Z,66.23
2018-05-14T19:41:31.484Z,68.00
2018-05-14T19:44:00.141Z,78.27
2018-05-14T19:46:28.827Z,73.90
2018-05-14T19:48:57.395Z,73.47
2018-05-14T19:51:26.804Z,73.40
2018-05-14T19:53:55.263Z,73.20
2018-05-14T19:56:24.498Z,80.67
2018-05-14T19:58:52.945Z,75.63
2018-05-14T20:01:22.385Z,73.03
2018-05-14T20:03:50.861Z,71.80
2018-05-14T20:06:19.350Z,69.63
2018-05-14T20:08:47.858Z,58.93
2018-05-14T20:11:16.336Z,67.80
2018-05-14T20:13:44.906Z,71.83
2018-05-14T20:16:13.377Z,72.73
2018-05-14T20:18:41.909Z,70.93
2018-05-14T20:21:10.408Z,63.60
2018-05-14T20:23:39.634Z,67.13
2018-05-14T20:26:08.107Z,64.20
2018-05-14T20:28:37.355Z,61.43
2018-05-14T20:31:05.849Z,59.47
2018-05-14T20:33:35.340Z,65.13
2018-05-14T20:36:03.857Z,73.27
2018-05-14T20:38:32.332Z,72.43
2018-05-14T20:41:00.788Z,67.73
2018-05-14T20:43:29.233Z,72.07
2018-05-14T20:45:57.942Z,79.20
2018-05-14T20:48:26.405Z,71.47
2018-05-14T20:50:54.887Z,83.43
2018-05-14T20:53:23.351Z,72.13
2018-05-14T20:55:51.821Z,79.10
2018-05-14T20:58:21.029Z,70.47
2018-05-14T21:00:50.369Z,70.03
2018-05-14T21:03:18.925Z,62.90
2018-05-14T21:05:48.241Z,67.23
2018-05-14T21:08:16.883Z,69.30
2018-05-14T21:10:45.356Z,71.40
2018-05-14T21:13:13.819Z,76.90
2018-05-14T21:15:42.297Z,77.40
2018-05-14T21:18:10.765Z,74.53
2018-05-14T21:20:39.817Z,87.27
2018-05-14T21:23:08.266Z,89.43
2018-05-14T21:25:36.764Z,81.43
2018-05-14T21:28:05.074Z,75.80
2018-05-14T21:30:34.302Z,79.50
2018-05-14T21:33:02.802Z,73.00
2018-05-14T21:35:31.267Z,79.33
2018-05-14T21:37:59.700Z,75.70
2018-05-14T21:40:28.177Z,73.77
2018-05-14T21:42:56.615Z,68.07
2018-05-14T21:45:25.048Z,45.90
2018-05-14T21:47:53.764Z,53.57
2018-05-14T21:50:22.271Z,60.17
2018-05-14T21:52:51.033Z,52.97
2018-05-14T21:55:19.916Z,53.20
2018-05-14T21:57:49.172Z,53.60
2018-05-14T22:00:17.607Z,57.60
2018-05-14T22:02:46.072Z,49.90
2018-05-14T22:05:15.302Z,47.63
2018-05-14T22:07:43.788Z,53.47
2018-05-14T22:10:12.240Z,51.83
2018-05-14T22:12:41.461Z,44.93
2018-05-14T22:15:09.909Z,53.10
2018-05-14T22:17:38.634Z,52.20
2018-05-14T22:20:06.760Z,49.70
2018-05-14T22:22:35.207Z,55.40
2018-05-14T22:25:03.341Z,59.47
2018-05-14T22:27:32.553Z,50.00
2018-05-14T22:30:01.005Z,49.80
2018-05-14T22:32:29.479Z,46.90
2018-05-14T22:34:57.928Z,53.60
2018-05-14T22:37:26.428Z,46.10
2018-05-14T22:39:55.840Z,50.70
2018-05-14T22:42:24.508Z,49.77
2018-05-14T22:44:52.989Z,48.47
2018-05-14T22:47:21.444Z,44.90
2018-05-14T22:49:49.562Z,51.70
2018-05-14T22:52:17.830Z,48.70
2018-05-14T22:54:46.272Z,50.83
2018-05-14T22:57:14.917Z,45.60
2018-05-14T22:59:43.441Z,45.37
2018-05-14T23:02:11.897Z,55.30
2018-05-14T23:04:40.352Z,66.07
2018-05-14T23:07:08.813Z,54.87
2018-05-14T23:09:37.425Z,58.80
2018-05-14T23:12:06.081Z,52.20
2018-05-14T23:14:34.540Z,53.30
2018-05-14T23:17:03.149Z,52.47
2018-05-14T23:19:31.800Z,56.17
2018-05-14T23:22:01.053Z,60.77
2018-05-14T23:24:29.484Z,63.87
2018-05-14T23:26:58.836Z,64.87
2018-05-14T23:29:27.280Z,68.43
2018-05-14T23:31:55.837Z,65.10
2018-05-14T23:34:24.276Z,72.37
2018-05-14T23:36:52.756Z,64.37
2018-05-14T23:39:21.222Z,63.27
2018-05-14T23:41:49.683Z,74.87
2018-05-14T23:44:18.886Z,61.90
2018-05-14T23:46:48.245Z,67.20
2018-05-14T23:49:16.764Z,66.03
2018-05-14T23:51:46.199Z,71.80
2018-05-14T23:54:14.680Z,67.63
2018-05-14T23:56:43.112Z,60.13
2018-05-14T23:59:11.580Z,63.30
